Time;durP1;ratioP1;P1;durP2;ratioP2;P2;SDS_P1;SDS_P2;PMS_P1;PMS_P2;Temp;Humidity;BMP_temperature;BMP_pressure;BME280_temperature;BME280_humidity;BME280_pressure;Samples;Min_cycle;Max_cycle;Signal;HPM_P1;HPM_P2
2024/01/09 00:00:18;;;;;;;4.03;2.30;;;14.60;32.90;;;;;;5977385;22;45292;-52
2024/01/09 00:03:10;;;;;;;3.90;2.75;;;14.60;32.90;;;;;;5989275;22;45417;-52
2024/01/09 00:05:36;;;;;;;4.20;2.28;;;14.60;32.80;;;;;;6011093;22;45789;-53
2024/01/09 00:08:18;;;;;;;3.67;2.58;;;14.60;32.90;;;;;;6003099;22;45032;-53
2024/01/09 00:10:45;;;;;;;3.65;2.45;;;14.50;32.60;;;;;;5974495;22;45304;-53
2024/01/09 00:13:12;;;;;;;3.95;2.38;;;14.60;32.80;;;;;;6005540;22;45362;-52
2024/01/09 00:15:39;;;;;;;4.10;2.70;;;14.60;32.60;;;;;;6022239;22;45264;-53
2024/01/09 00:18:06;;;;;;;3.00;2.08;;;14.60;32.30;;;;;;5979000;22;45360;-53
2024/01/09 00:20:47;;;;;;;4.47;2.30;;;14.60;32.50;;;;;;5972598;22;45823;-53
2024/01/09 00:23:29;;;;;;;3.47;2.60;;;14.60;31.80;;;;;;6009925;22;45526;-53
2024/01/09 00:26:21;;;;;;;6.45;2.45;;;14.60;32.40;;;;;;6019778;22;45713;-52
2024/01/09 00:29:11;;;;;;;4.15;2.58;;;14.60;32.50;;;;;;6026658;22;45313;-52
2024/01/09 00:31:59;;;;;;;3.13;2.13;;;14.60;32.40;;;;;;6008023;22;45217;-53
2024/01/09 00:34:47;;;;;;;4.65;2.78;;;14.60;32.30;;;;;;6006053;22;45358;-53
2024/01/09 00:37:42;;;;;;;3.33;2.30;;;14.50;32.10;;;;;;6010142;22;46122;-53
2024/01/09 00:40:10;;;;;;;4.20;2.60;;;14.50;32.20;;;;;;6008916;22;45360;-53
2024/01/09 00:42:37;;;;;;;4.05;2.63;;;14.50;33.50;;;;;;5988325;22;45054;-53
2024/01/09 00:45:22;;;;;;;3.42;2.33;;;14.50;32.00;;;;;;6024273;22;45154;-53
2024/01/09 00:47:50;;;;;;;3.10;2.42;;;14.40;31.10;;;;;;6028632;22;46186;-53
2024/01/09 00:50:19;;;;;;;4.22;2.60;;;14.30;31.40;;;;;;5988056;22;45307;-53
2024/01/09 00:53:18;;;;;;;4.47;3.00;;;14.30;31.10;;;;;;6002437;22;45271;-53
2024/01/09 00:56:22;;;;;;;3.58;2.42;;;14.30;31.30;;;;;;6001771;22;45229;-52
2024/01/09 00:59:10;;;;;;;3.75;2.72;;;14.30;30.80;;;;;;6016455;22;45776;-52
2024/01/09 01:02:07;;;;;;;4.28;2.53;;;14.30;30.60;;;;;;6007589;22;45520;-52
2024/01/09 01:04:45;;;;;;;3.75;2.50;;;14.20;30.20;;;;;;6000470;22;45361;-52
2024/01/09 01:07:11;;;;;;;5.38;2.88;;;14.20;30.20;;;;;;5987301;22;45455;-52
2024/01/09 01:09:38;;;;;;;5.50;2.88;;;14.20;30.60;;;;;;6011669;22;45587;-53
2024/01/09 01:12:13;;;;;;;4.15;2.60;;;14.20;30.50;;;;;;6033403;22;44931;-52
2024/01/09 01:15:00;;;;;;;4.50;2.80;;;14.20;30.00;;;;;;6006152;22;45233;-52
2024/01/09 01:17:55;;;;;;;4.13;2.38;;;14.20;30.30;;;;;;6008769;22;45044;-52
2024/01/09 01:20:50;;;;;;;3.97;2.53;;;14.20;29.80;;;;;;6028490;22;45505;-52
2024/01/09 01:23:29;;;;;;;5.65;2.50;;;14.10;29.80;;;;;;6000337;22;45316;-53
2024/01/09 01:26:11;;;;;;;3.85;2.58;;;14.10;30.00;;;;;;5978308;22;45422;-52
2024/01/09 01:29:04;;;;;;;4.63;2.92;;;14.10;29.90;;;;;;5998286;22;45098;-53
2024/01/09 01:31:55;;;;;;;5.53;3.33;;;14.10;29.80;;;;;;5980642;22;46481;-52
2024/01/09 01:34:30;;;;;;;3.30;2.08;;;14.00;29.70;;;;;;6004167;22;45440;-53
2024/01/09 01:36:57;;;;;;;3.50;2.40;;;14.10;30.00;;;;;;6018813;22;45198;-52
2024/01/09 01:39:37;;;;;;;4.88;3.05;;;14.00;30.20;;;;;;5996956;22;45165;-53
2024/01/09 01:42:16;;;;;;;4.70;2.50;;;14.00;29.80;;;;;;5982503;22;45527;-53
2024/01/09 01:45:00;;;;;;;3.92;2.53;;;14.00;29.90;;;;;;6014611;22;45158;-52
2024/01/09 01:47:56;;;;;;;3.80;2.60;;;14.00;29.80;;;;;;6031774;22;45123;-52
2024/01/09 01:51:11;;;;;;;4.63;2.80;;;14.00;29.40;;;;;;6026409;22;45347;-52
2024/01/09 01:53:56;;;;;;;4.90;2.80;;;14.00;29.30;;;;;;6017155;22;46159;-52
2024/01/09 01:56:51;;;;;;;3.92;2.63;;;14.00;29.40;;;;;;6009060;22;45007;-52
2024/01/09 01:59:21;;;;;;;5.32;2.85;;;13.90;29.10;;;;;;6000931;22;45249;-52
2024/01/09 02:01:50;;;;;;;4.85;2.28;;;13.90;29.50;;;;;;6014783;22;45179;-52
2024/01/09 02:04:27;;;;;;;6.03;3.10;;;13.90;29.50;;;;;;6013725;22;46351;-52
2024/01/09 02:06:54;;;;;;;4.63;2.92;;;14.00;29.60;;;;;;6013040;22;45255;-53
2024/01/09 02:09:39;;;;;;;3.65;2.40;;;14.00;30.10;;;;;;6000232;22;44942;-52
2024/01/09 02:12:08;;;;;;;5.40;3.08;;;14.00;29.80;;;;;;6002573;22;45441;-52
2024/01/09 02:15:01;;;;;;;3.97;2.70;;;14.00;29.70;;;;;;6009338;22;47431;-52
2024/01/09 02:17:38;;;;;;;4.20;2.67;;;13.90;29.40;;;;;;6030917;22;45142;-53
2024/01/09 02:20:29;;;;;;;5.43;3.38;;;13.90;29.50;;;;;;6016670;22;45296;-52
2024/01/09 02:22:58;;;;;;;4.07;2.50;;;13.80;29.00;;;;;;5988949;22;45038;-52
2024/01/09 02:25:26;;;;;;;4.10;2.55;;;13.90;29.40;;;;;;6009084;22;46985;-52
2024/01/09 02:28:09;;;;;;;4.28;2.70;;;13.80;29.20;;;;;;5997771;22;44833;-52
2024/01/09 02:30:39;;;;;;;5.53;2.90;;;13.80;29.00;;;;;;6010945;22;45089;-52
2024/01/09 02:36:47;;;;;;;3.92;2.47;;;13.80;28.70;;;;;;6011675;22;45277;-52
2024/01/09 02:42:38;;;;;;;4.45;2.70;;;13.70;28.40;;;;;;5934004;22;45256;-52
2024/01/09 02:45:14;;;;;;;5.15;2.97;;;13.80;28.70;;;;;;5979677;22;45134;-52
2024/01/09 02:47:57;;;;;;;4.07;2.47;;;13.70;28.60;;;;;;6002058;22;45395;-52
2024/01/09 02:50:52;;;;;;;4.30;2.67;;;13.70;28.30;;;;;;6023721;22;45330;-52
2024/01/09 02:53:42;;;;;;;5.13;2.67;;;13.80;28.30;;;;;;6013010;22;45207;-52
2024/01/09 02:56:09;;;;;;;4.80;2.58;;;13.80;28.30;;;;;;6005083;22;45316;-52
2024/01/09 02:58:37;;;;;;;4.32;2.63;;;13.80;28.50;;;;;;5997927;22;46031;-52
2024/01/09 03:01:09;;;;;;;5.68;2.92;;;13.70;28.50;;;;;;6007579;22;45192;-53
2024/01/09 03:03:51;;;;;;;3.55;2.22;;;13.80;28.40;;;;;;6014817;22;45217;-52
2024/01/09 03:06:18;;;;;;;4.60;2.60;;;13.80;28.20;;;;;;6003169;22;45312;-53
2024/01/09 03:08:45;;;;;;;3.83;2.53;;;13.80;28.40;;;;;;6000453;22;47659;-52
2024/01/09 03:11:11;;;;;;;4.40;2.60;;;13.80;28.40;;;;;;6015317;22;45326;-52
2024/01/09 03:14:02;;;;;;;4.53;2.72;;;13.70;28.40;;;;;;6012868;22;45058;-52
2024/01/09 03:16:28;;;;;;;3.08;2.20;;;13.70;28.10;;;;;;6002854;22;45067;-53
2024/01/09 03:19:02;;;;;;;4.20;2.67;;;13.70;28.30;;;;;;5979851;22;46101;-52
2024/01/09 03:21:28;;;;;;;3.63;2.30;;;13.70;28.20;;;;;;5999474;22;45313;-52
2024/01/09 03:24:08;;;;;;;4.18;2.70;;;13.70;28.30;;;;;;5987771;22;45131;-52
2024/01/09 03:26:59;;;;;;;3.55;2.45;;;13.70;28.20;;;;;;6022605;22;45256;-52
2024/01/09 03:29:49;;;;;;;3.63;2.60;;;13.60;27.80;;;;;;5993075;22;45457;-52
2024/01/09 03:32:32;;;;;;;4.28;2.50;;;13.60;27.90;;;;;;5998156;22;45658;-52
2024/01/09 03:35:37;;;;;;;3.72;2.55;;;13.60;27.70;;;;;;5999654;22;45391;-52
2024/01/09 03:38:32;;;;;;;3.03;2.13;;;13.60;27.70;;;;;;6040843;22;46280;-52
2024/01/09 03:41:30;;;;;;;3.53;2.50;;;13.60;27.70;;;;;;6009034;22;46170;-52
2024/01/09 03:44:16;;;;;;;3.78;2.60;;;13.60;27.60;;;;;;6002374;22;44908;-52
2024/01/09 03:46:55;;;;;;;3.80;2.33;;;13.60;27.50;;;;;;5984752;22;44936;-52
2024/01/09 03:49:43;;;;;;;3.72;2.53;;;13.70;27.60;;;;;;6016059;22;45247;-52
2024/01/09 03:52:40;;;;;;;4.15;2.50;;;13.70;27.50;;;;;;6031963;22;47235;-52
2024/01/09 03:55:15;;;;;;;4.60;2.58;;;13.70;27.40;;;;;;5974712;22;45402;-52
2024/01/09 03:57:48;;;;;;;4.50;2.42;;;13.70;27.60;;;;;;6008536;22;45253;-53
2024/01/09 04:00:47;;;;;;;4.50;2.53;;;13.60;27.60;;;;;;6005644;22;44865;-52
2024/01/09 04:03:17;;;;;;;4.10;2.55;;;13.60;27.30;;;;;;5998051;22;45807;-52
2024/01/09 04:06:17;;;;;;;5.50;2.55;;;13.60;27.50;;;;;;6010701;22;45332;-52
2024/01/09 04:09:12;;;;;;;3.60;2.20;;;13.60;27.30;;;;;;6016313;22;45414;-52
2024/01/09 04:12:07;;;;;;;3.42;2.05;;;13.50;27.20;;;;;;6013051;22;45032;-52
2024/01/09 04:14:56;;;;;;;3.83;2.33;;;13.60;27.30;;;;;;6031602;22;47094;-52
2024/01/09 04:17:44;;;;;;;4.00;2.47;;;13.50;27.20;;;;;;6001835;22;45680;-52
2024/01/09 04:20:26;;;;;;;3.47;1.90;;;13.50;27.20;;;;;;6004440;22;45141;-52
2024/01/09 04:23:09;;;;;;;4.38;2.63;;;13.50;27.20;;;;;;5999002;22;45415;-52
2024/01/09 04:26:06;;;;;;;4.05;2.67;;;13.50;27.20;;;;;;6018158;22;45441;-52
2024/01/09 04:29:06;;;;;;;3.50;2.20;;;13.50;27.10;;;;;;6048252;22;45339;-52
2024/01/09 04:31:32;;;;;;;3.67;2.58;;;13.50;27.10;;;;;;5990861;22;45258;-52
2024/01/09 04:34:14;;;;;;;4.15;2.38;;;13.50;27.30;;;;;;6020610;22;45335;-52
2024/01/09 04:37:06;;;;;;;4.15;2.45;;;13.50;27.00;;;;;;5984417;22;46272;-52
2024/01/09 04:39:33;;;;;;;4.35;2.60;;;13.50;27.00;;;;;;6008459;22;45336;-52
2024/01/09 04:42:27;;;;;;;3.33;2.33;;;13.50;27.10;;;;;;5999465;22;45023;-52
2024/01/09 04:45:20;;;;;;;5.07;2.75;;;13.50;26.90;;;;;;5994839;22;45534;-52
2024/01/09 04:47:55;;;;;;;3.53;2.25;;;13.60;27.00;;;;;;6005070;22;47008;-52
2024/01/09 04:50:50;;;;;;;4.28;2.70;;;13.60;27.00;;;;;;6058362;22;45326;-52
2024/01/09 04:53:55;;;;;;;3.88;2.40;;;13.50;26.90;;;;;;6038044;22;45308;-52
2024/01/09 04:56:33;;;;;;;3.35;2.22;;;13.50;26.80;;;;;;6021388;22;45328;-52
2024/01/09 04:59:32;;;;;;;2.70;1.95;;;13.50;27.10;;;;;;6027955;22;45269;-52
2024/01/09 05:02:04;;;;;;;3.05;2.10;;;13.50;27.00;;;;;;5999218;22;45134;-51
2024/01/09 05:04:49;;;;;;;3.70;2.60;;;13.50;27.10;;;;;;6031370;22;45244;-52
2024/01/09 05:07:16;;;;;;;3.65;2.25;;;13.50;27.00;;;;;;5992125;22;45184;-52
2024/01/09 05:09:52;;;;;;;5.97;2.90;;;13.50;27.20;;;;;;6019763;22;45827;-51
2024/01/09 05:12:36;;;;;;;3.35;2.25;;;13.70;28.40;;;;;;5982974;22;45099;-52
2024/01/09 05:15:25;;;;;;;4.70;2.65;;;13.70;28.90;;;;;;5983226;22;45298;-52
2024/01/09 05:17:51;;;;;;;3.05;2.17;;;13.60;28.50;;;;;;5964363;22;45207;-51
2024/01/09 05:20:35;;;;;;;3.28;2.55;;;13.70;29.30;;;;;;5963729;22;45808;-51
2024/01/09 05:23:21;;;;;;;3.70;2.38;;;13.60;27.70;;;;;;5981317;22;45126;-52
2024/01/09 05:26:03;;;;;;;3.65;2.20;;;13.50;27.40;;;;;;5976809;22;45143;-52
2024/01/09 05:28:30;;;;;;;5.95;2.80;;;13.50;27.30;;;;;;5960138;22;45282;-52
2024/01/09 05:31:15;;;;;;;4.50;2.35;;;13.50;27.20;;;;;;5994145;22;46151;-52
2024/01/09 05:33:43;;;;;;;3.90;2.30;;;13.50;27.10;;;;;;5961282;22;45142;-52
2024/01/09 05:36:26;;;;;;;3.92;2.28;;;13.50;27.10;;;;;;5972888;22;45155;-52
2024/01/09 05:38:53;;;;;;;5.65;2.47;;;13.50;26.90;;;;;;5975598;22;45222;-52
2024/01/09 05:41:21;;;;;;;5.82;2.55;;;13.50;27.00;;;;;;5972110;22;45380;-52
2024/01/09 05:44:00;;;;;;;5.47;2.47;;;13.50;27.00;;;;;;5950024;22;45481;-52
2024/01/09 05:47:04;;;;;;;5.75;2.53;;;13.50;26.90;;;;;;5989005;22;45134;-52
2024/01/09 05:49:38;;;;;;;4.57;2.70;;;13.50;26.60;;;;;;5960694;22;45350;-52
2024/01/09 05:52:26;;;;;;;4.00;2.60;;;13.40;26.70;;;;;;5979140;22;46596;-52
2024/01/09 05:55:15;;;;;;;6.63;2.30;;;13.70;30.70;;;;;;5973924;22;45236;-52
2024/01/09 05:58:05;;;;;;;7.10;2.60;;;13.60;28.10;;;;;;5985030;22;45211;-52
2024/01/09 06:00:41;;;;;;;9.18;2.90;;;13.60;27.80;;;;;;5944773;22;45190;-52
2024/01/09 06:03:34;;;;;;;5.10;2.42;;;13.50;27.50;;;;;;5980829;22;45563;-52
2024/01/09 06:06:02;;;;;;;6.35;2.65;;;13.50;27.40;;;;;;5985970;22;45499;-52
2024/01/09 06:08:50;;;;;;;5.18;2.30;;;13.50;27.40;;;;;;5996276;22;45280;-52
2024/01/09 06:11:17;;;;;;;4.40;2.28;;;13.40;27.20;;;;;;5969483;22;45130;-52
2024/01/09 06:13:58;;;;;;;4.22;2.50;;;13.40;27.30;;;;;;5973052;22;45398;-52
2024/01/09 06:17:04;;;;;;;4.70;2.50;;;13.40;27.10;;;;;;5991143;22;45068;-52
2024/01/09 06:20:12;;;;;;;3.95;2.30;;;13.40;27.00;;;;;;5973066;22;45498;-52
2024/01/09 06:23:05;;;;;;;3.70;2.22;;;13.40;27.00;;;;;;5999731;22;45035;-52
2024/01/09 06:25:33;;;;;;;6.07;2.42;;;13.40;27.00;;;;;;5988713;22;47014;-53
2024/01/09 06:28:15;;;;;;;5.00;2.55;;;13.40;27.10;;;;;;5980776;22;45402;-52
2024/01/09 06:30:42;;;;;;;3.83;2.40;;;13.40;27.20;;;;;;5983497;22;45187;-52
2024/01/09 06:33:38;;;;;;;4.13;2.40;;;13.40;27.00;;;;;;5986833;22;45289;-52
2024/01/09 06:36:30;;;;;;;6.25;2.80;;;13.40;26.70;;;;;;5993661;22;45518;-52
2024/01/09 06:39:02;;;;;;;5.25;2.22;;;13.50;27.00;;;;;;5994786;22;45020;-52
2024/01/09 06:44:25;;;;;;;4.18;2.40;;;13.40;26.90;;;;;;5952499;22;45729;-52
2024/01/09 06:46:52;;;;;;;4.82;2.80;;;13.40;27.00;;;;;;5980197;22;45799;-52
2024/01/09 06:49:36;;;;;;;5.35;2.55;;;13.40;26.90;;;;;;5977824;22;44855;-52
2024/01/09 06:52:42;;;;;;;3.78;2.20;;;13.40;27.60;;;;;;5994249;22;45254;-52
2024/01/09 06:55:11;;;;;;;4.75;2.47;;;13.30;26.60;;;;;;5977645;22;45246;-53
2024/01/09 06:58:07;;;;;;;4.68;2.47;;;13.30;26.80;;;;;;6012144;22;46220;-52
2024/01/09 07:00:46;;;;;;;6.03;3.00;;;13.30;26.60;;;;;;5978348;22;45243;-52
2024/01/09 07:03:13;;;;;;;3.60;2.50;;;13.30;26.60;;;;;;5955357;22;45048;-52
2024/01/09 07:05:40;;;;;;;4.38;2.38;;;13.30;26.70;;;;;;5985769;22;45576;-53
2024/01/09 07:08:07;;;;;;;3.83;2.38;;;13.30;26.70;;;;;;5989793;22;46012;-52
2024/01/09 07:10:35;;;;;;;4.18;2.30;;;13.30;26.70;;;;;;5987446;22;45029;-52
2024/01/09 07:13:32;;;;;;;5.65;2.75;;;13.20;26.50;;;;;;5996799;22;45188;-52
2024/01/09 07:16:01;;;;;;;4.28;2.38;;;13.30;26.40;;;;;;5958814;22;45128;-52
2024/01/09 07:21:29;;;;;;;4.13;2.50;;;13.30;26.70;;;;;;6000658;22;45229;-52
2024/01/09 07:23:56;;;;;;;4.47;2.45;;;13.20;26.40;;;;;;5959189;22;45973;-52
2024/01/09 07:26:24;;;;;;;3.13;2.40;;;13.30;26.60;;;;;;5979747;22;45261;-52
2024/01/09 07:28:51;;;;;;;4.10;2.33;;;13.40;26.80;;;;;;5974682;22;46052;-52
2024/01/09 07:31:37;;;;;;;3.65;2.30;;;13.50;27.00;;;;;;5994088;22;45216;-52
2024/01/09 07:34:19;;;;;;;2.97;2.15;;;13.50;26.90;;;;;;5974160;22;45131;-52
2024/01/09 07:37:20;;;;;;;6.10;2.70;;;13.60;27.10;;;;;;5994598;22;45264;-52
2024/01/09 07:40:04;;;;;;;4.78;2.40;;;13.70;27.10;;;;;;5983558;22;46430;-52
2024/01/09 07:42:58;;;;;;;5.22;2.50;;;13.70;27.30;;;;;;5961852;22;45213;-52
2024/01/09 07:45:50;;;;;;;3.20;2.22;;;13.70;27.20;;;;;;6000636;22;45564;-52
2024/01/09 07:48:36;;;;;;;4.28;2.75;;;13.70;27.30;;;;;;5974928;22;45074;-52
2024/01/09 07:51:03;;;;;;;4.32;2.30;;;13.80;27.40;;;;;;5967965;22;45493;-51
2024/01/09 07:53:44;;;;;;;3.30;2.28;;;13.70;27.40;;;;;;5985184;22;45261;-52
2024/01/09 07:56:16;;;;;;;3.58;2.22;;;13.80;27.40;;;;;;5949157;22;45258;-52
2024/01/09 07:58:45;;;;;;;3.83;2.10;;;13.80;27.40;;;;;;5975517;22;44799;-52
2024/01/09 08:01:13;;;;;;;4.13;2.60;;;13.80;27.50;;;;;;5964499;22;46670;-52
2024/01/09 08:03:54;;;;;;;4.85;2.47;;;13.80;27.50;;;;;;5972054;22;45108;-52
2024/01/09 08:06:57;;;;;;;4.53;2.90;;;13.80;27.60;;;;;;5956888;22;45322;-52
2024/01/09 08:09:34;;;;;;;4.47;2.33;;;13.80;27.40;;;;;;5975910;22;45299;-52
2024/01/09 08:12:02;;;;;;;4.40;2.35;;;13.90;27.60;;;;;;5970912;22;45632;-52
2024/01/09 08:15:02;;;;;;;5.13;2.47;;;13.80;27.60;;;;;;5992243;22;45133;-52
2024/01/09 08:17:46;;;;;;;5.35;2.45;;;13.90;27.60;;;;;;5983490;22;45129;-52
2024/01/09 08:20:13;;;;;;;5.57;2.72;;;13.90;27.50;;;;;;5977344;22;45329;-52
2024/01/09 08:23:10;;;;;;;4.93;2.72;;;13.90;27.60;;;;;;5992543;22;46624;-52
2024/01/09 08:25:37;;;;;;;3.20;2.28;;;13.90;27.40;;;;;;5967446;22;45238;-52
2024/01/09 08:28:04;;;;;;;5.13;2.60;;;13.90;27.60;;;;;;5974149;22;45048;-52
2024/01/09 08:30:47;;;;;;;4.30;2.42;;;13.90;27.60;;;;;;5995969;22;45311;-52
2024/01/09 08:33:14;;;;;;;5.03;2.88;;;13.90;27.40;;;;;;5940770;22;45517;-52
2024/01/09 08:35:43;;;;;;;4.75;2.78;;;13.90;27.50;;;;;;5971159;22;45318;-52
2024/01/09 08:38:27;;;;;;;5.03;2.30;;;13.90;27.60;;;;;;5957502;22;45084;-52
2024/01/09 08:40:56;;;;;;;4.20;2.80;;;13.90;27.60;;;;;;5959164;22;45125;-52
2024/01/09 08:43:54;;;;;;;5.30;3.08;;;13.90;27.60;;;;;;5967834;22;46943;-51
2024/01/09 08:46:44;;;;;;;4.93;2.92;;;13.90;27.50;;;;;;5965833;22;45393;-52
2024/01/09 08:49:12;;;;;;;5.43;2.83;;;13.90;27.50;;;;;;5959320;22;44942;-52
2024/01/09 08:51:42;;;;;;;3.88;2.42;;;14.00;27.60;;;;;;5955990;22;45552;-52
2024/01/09 08:54:18;;;;;;;4.15;2.47;;;13.90;27.60;;;;;;5955921;22;46308;-52
2024/01/09 08:56:58;;;;;;;4.45;2.80;;;13.90;27.40;;;;;;5983258;22;45313;-52
2024/01/09 08:59:26;;;;;;;3.47;2.33;;;14.00;27.50;;;;;;5963126;22;45119;-52
2024/01/09 09:02:14;;;;;;;4.28;2.58;;;14.00;27.60;;;;;;5992285;22;44989;-52
2024/01/09 09:05:01;;;;;;;4.90;2.72;;;14.00;27.30;;;;;;5964930;22;46361;-52
2024/01/09 09:07:43;;;;;;;3.20;2.13;;;13.90;27.20;;;;;;5974102;22;45372;-52
2024/01/09 09:10:33;;;;;;;5.38;2.78;;;13.90;27.30;;;;;;5997270;22;45208;-52
2024/01/09 09:13:39;;;;;;;4.65;2.65;;;14.00;27.30;;;;;;5966694;22;45126;-52
2024/01/09 09:16:40;;;;;;;3.78;2.45;;;14.00;27.40;;;;;;5964499;22;45410;-52
2024/01/09 09:19:26;;;;;;;4.10;2.70;;;14.00;27.40;;;;;;5952390;22;45286;-52
2024/01/09 09:22:13;;;;;;;3.70;2.50;;;14.00;27.60;;;;;;5972347;22;44804;-52
2024/01/09 09:24:59;;;;;;;4.88;2.60;;;14.00;27.30;;;;;;5960829;22;45236;-52
2024/01/09 09:27:27;;;;;;;4.60;2.33;;;14.00;27.40;;;;;;5967388;22;45794;-52
2024/01/09 09:29:53;;;;;;;4.57;2.58;;;14.00;27.60;;;;;;5951874;22;45347;-52
2024/01/09 09:32:20;;;;;;;6.72;2.63;;;14.00;27.50;;;;;;5992680;22;45326;-52
2024/01/09 09:35:12;;;;;;;3.88;2.30;;;14.00;27.50;;;;;;6007404;22;45289;-52
2024/01/09 09:37:48;;;;;;;3.65;2.50;;;14.00;27.30;;;;;;5968846;22;47111;-52
2024/01/09 09:43:46;;;;;;;4.53;2.78;;;14.00;27.50;;;;;;5960331;22;45293;-52
2024/01/09 09:46:35;;;;;;;4.60;2.28;;;14.00;27.30;;;;;;5977167;22;45635;-52
2024/01/09 09:52:01;;;;;;;4.18;2.35;;;14.00;27.60;;;;;;5971015;22;44890;-52
2024/01/09 09:54:31;;;;;;;3.75;2.60;;;14.00;27.50;;;;;;5973459;22;45615;-52
2024/01/09 09:57:06;;;;;;;6.10;2.90;;;14.00;27.50;;;;;;5962067;22;45304;-52
2024/01/09 09:59:34;;;;;;;5.97;2.67;;;14.00;27.50;;;;;;5966754;22;45288;-52
2024/01/09 10:05:50;;;;;;;3.80;2.35;;;14.10;27.20;;;;;;5952390;22;45614;-52
2024/01/09 10:08:42;;;;;;;3.83;2.30;;;14.10;27.20;;;;;;5979994;22;45432;-52
2024/01/09 10:11:32;;;;;;;4.15;2.50;;;14.10;27.30;;;;;;5985138;22;45932;-52
2024/01/09 10:14:11;;;;;;;4.63;2.70;;;14.10;27.30;;;;;;5991999;22;45050;-51
2024/01/09 10:19:55;;;;;;;4.10;2.33;;;14.10;27.20;;;;;;5919154;22;45328;-52
2024/01/09 10:22:23;;;;;;;5.93;2.47;;;14.10;27.30;;;;;;5977350;22;45702;-52
2024/01/09 10:25:31;;;;;;;4.80;2.60;;;14.10;27.30;;;;;;5966111;22;45028;-52
2024/01/09 10:28:04;;;;;;;4.78;3.10;;;14.10;27.10;;;;;;5969607;22;45277;-52
2024/01/09 10:33:16;;;;;;;5.03;2.63;;;14.20;27.30;;;;;;5972362;22;45469;-52
2024/01/09 10:36:16;;;;;;;3.33;2.47;;;14.20;27.30;;;;;;5977130;22;44960;-51
2024/01/09 10:39:04;;;;;;;5.22;2.58;;;14.20;27.10;;;;;;5986255;22;45320;-52
2024/01/09 11:08:35;;;;;;;4.03;2.58;;;14.20;27.50;;;;;;6180790;22;1246398;-52
2024/01/09 11:14:26;;;;;;;4.80;2.42;;;14.10;27.20;;;;;;6000273;22;45321;-52
2024/01/09 11:25:38;;;;;;;4.03;2.45;;;14.10;27.10;;;;;;6027802;22;45326;-52
2024/01/09 11:28:07;;;;;;;4.55;2.78;;;14.10;27.20;;;;;;6070974;22;45907;-52
2024/01/09 11:31:17;;;;;;;6.25;2.65;;;14.10;27.30;;;;;;6018465;22;45065;-52
2024/01/09 11:33:45;;;;;;;3.47;2.40;;;14.20;27.30;;;;;;6051386;22;45162;-53
2024/01/09 11:36:40;;;;;;;4.90;2.60;;;14.10;27.40;;;;;;6046253;22;45213;-52
2024/01/09 11:39:36;;;;;;;4.22;2.25;;;14.10;27.10;;;;;;6048889;22;46588;-52
2024/01/09 11:42:06;;;;;;;4.88;3.20;;;14.10;26.90;;;;;;6036329;22;45280;-51
2024/01/09 11:44:34;;;;;;;3.17;2.35;;;14.10;27.90;;;;;;6038645;22;45457;-52
2024/01/09 11:47:14;;;;;;;4.90;2.83;;;14.10;27.00;;;;;;6046186;22;45243;-52
2024/01/09 11:50:08;;;;;;;4.25;2.60;;;14.10;26.80;;;;;;6056913;22;45436;-52
2024/01/09 11:52:35;;;;;;;6.20;2.90;;;14.10;26.50;;;;;;6028206;22;45362;-52
2024/01/09 11:55:30;;;;;;;4.45;2.30;;;14.10;26.80;;;;;;6035970;22;45400;-52
2024/01/09 11:58:02;;;;;;;4.88;3.05;;;14.20;27.50;;;;;;6017530;22;45239;-52
2024/01/09 12:00:35;;;;;;;4.57;2.83;;;14.20;28.00;;;;;;6029844;22;45490;-52
2024/01/09 12:03:24;;;;;;;4.45;2.25;;;14.10;27.80;;;;;;6043725;22;45179;-52
2024/01/09 12:06:04;;;;;;;3.58;2.40;;;14.10;27.50;;;;;;6052285;22;45176;-52
2024/01/09 12:12:22;;;;;;;4.40;2.67;;;14.10;27.10;;;;;;6022968;22;45643;-52
2024/01/09 12:14:54;;;;;;;4.10;2.58;;;14.10;26.80;;;;;;6068454;22;44935;-51
2024/01/09 12:17:47;;;;;;;4.15;2.35;;;14.10;27.10;;;;;;6041104;22;44798;-52
2024/01/09 12:23:07;;;;;;;6.90;2.92;;;13.90;26.80;;;;;;6053500;22;45140;-51
2024/01/09 12:26:05;;;;;;;4.75;2.42;;;13.90;26.90;;;;;;6071510;22;45615;-52
2024/01/09 12:28:59;;;;;;;5.18;2.63;;;13.80;26.30;;;;;;6072225;22;45220;-52
2024/01/09 12:31:55;;;;;;;5.97;2.75;;;13.80;26.30;;;;;;6095574;22;45205;-52
2024/01/09 12:34:23;;;;;;;2.88;2.35;;;13.70;26.40;;;;;;6092908;22;46182;-52
2024/01/09 12:36:50;;;;;;;3.38;2.13;;;13.70;26.70;;;;;;6069414;22;44898;-52
2024/01/09 12:39:36;;;;;;;3.47;2.40;;;13.70;26.70;;;;;;6090268;22;45305;-52
2024/01/09 12:42:07;;;;;;;4.05;2.30;;;13.70;26.20;;;;;;6069760;22;45071;-51
2024/01/09 12:44:34;;;;;;;3.60;2.15;;;13.60;26.30;;;;;;6072293;22;45997;-52
2024/01/09 12:47:50;;;;;;;4.88;2.50;;;13.70;26.40;;;;;;6072050;22;45162;-52
2024/01/09 12:50:35;;;;;;;4.72;2.53;;;13.70;26.00;;;;;;6077357;22;45054;-52
2024/01/09 12:53:27;;;;;;;3.33;2.10;;;13.60;25.70;;;;;;6052675;22;45075;-52
2024/01/09 12:56:16;;;;;;;5.05;2.70;;;13.60;25.70;;;;;;6065290;22;45454;-52
2024/01/09 12:59:10;;;;;;;4.00;2.45;;;13.60;25.90;;;;;;6039766;22;45648;-52
2024/01/09 13:01:44;;;;;;;3.60;2.30;;;13.60;27.00;;;;;;6069304;22;45842;-52
2024/01/09 13:04:35;;;;;;;4.50;2.55;;;13.60;26.30;;;;;;6078580;22;45076;-52
2024/01/09 13:07:32;;;;;;;3.28;2.33;;;13.60;25.70;;;;;;6063276;22;46059;-52
2024/01/09 13:10:16;;;;;;;3.22;2.17;;;13.60;25.60;;;;;;6059027;22;45263;-52
2024/01/09 13:12:43;;;;;;;6.80;2.33;;;13.60;26.20;;;;;;6069677;22;44971;-52
2024/01/09 13:15:10;;;;;;;3.15;2.20;;;13.60;26.10;;;;;;6083917;22;45234;-52
2024/01/09 13:17:54;;;;;;;4.40;2.38;;;13.60;26.10;;;;;;6048950;22;45592;-52
2024/01/09 13:20:51;;;;;;;5.00;2.42;;;13.60;25.70;;;;;;6094379;22;45392;-52
2024/01/09 13:23:45;;;;;;;3.58;2.40;;;13.60;25.40;;;;;;6082745;22;45120;-52
2024/01/09 13:26:32;;;;;;;3.45;2.05;;;13.50;25.40;;;;;;6085451;22;45137;-52
2024/01/09 13:29:27;;;;;;;4.10;2.33;;;13.50;25.40;;;;;;6068976;22;45786;-52
2024/01/09 13:31:54;;;;;;;4.20;2.45;;;13.60;25.40;;;;;;6062360;22;45370;-52
2024/01/09 13:34:49;;;;;;;4.45;2.38;;;13.50;25.80;;;;;;6098951;22;45098;-52
2024/01/09 13:37:26;;;;;;;5.30;2.35;;;13.60;25.50;;;;;;6066788;22;45273;-52
2024/01/09 13:39:56;;;;;;;7.25;2.53;;;13.60;25.90;;;;;;6066240;22;46975;-52
2024/01/09 13:42:50;;;;;;;5.00;2.63;;;13.50;26.00;;;;;;6077318;22;45256;-52
2024/01/09 13:45:17;;;;;;;4.25;2.33;;;13.60;25.50;;;;;;6046299;22;45188;-52
2024/01/09 13:48:13;;;;;;;4.63;2.45;;;13.50;25.80;;;;;;6076461;22;45264;-52
2024/01/09 13:50:40;;;;;;;3.65;2.17;;;13.50;25.40;;;;;;6065386;22;45784;-52
2024/01/09 13:53:20;;;;;;;3.60;2.15;;;13.50;25.90;;;;;;6051560;22;44968;-52
2024/01/09 13:55:48;;;;;;;4.93;2.60;;;13.50;25.40;;;;;;6066741;22;45203;-52
2024/01/09 13:58:22;;;;;;;3.45;2.28;;;13.50;25.70;;;;;;6074520;22;45635;-52
2024/01/09 14:01:12;;;;;;;3.00;2.00;;;13.50;25.80;;;;;;6082170;22;46305;-52
2024/01/09 14:03:56;;;;;;;3.55;2.17;;;13.60;25.70;;;;;;6054164;22;45707;-52
2024/01/09 14:06:57;;;;;;;3.25;2.00;;;13.50;25.10;;;;;;6095721;22;45214;-51
2024/01/09 14:09:26;;;;;;;3.08;2.05;;;13.50;25.00;;;;;;6076464;22;45229;-52
2024/01/09 14:11:53;;;;;;;3.88;2.22;;;13.50;25.60;;;;;;6070203;22;45201;-52
2024/01/09 14:14:33;;;;;;;3.28;1.95;;;13.50;25.60;;;;;;6090061;22;45231;-51
2024/01/09 14:17:01;;;;;;;5.72;2.22;;;13.50;25.10;;;;;;6066564;22;45357;-52
2024/01/09 14:19:28;;;;;;;3.35;1.80;;;13.50;25.50;;;;;;6053165;22;45373;-52
2024/01/09 14:21:55;;;;;;;3.15;2.03;;;13.50;25.40;;;;;;6062888;22;46203;-52
2024/01/09 14:25:03;;;;;;;4.43;2.10;;;13.50;25.50;;;;;;6088619;22;45326;-52
2024/01/09 14:28:09;;;;;;;4.85;1.90;;;13.50;25.00;;;;;;6070920;22;44893;-52
2024/01/09 14:31:03;;;;;;;3.42;2.08;;;13.50;24.90;;;;;;6079825;22;45178;-52
2024/01/09 14:33:30;;;;;;;2.92;1.85;;;13.50;24.80;;;;;;6082960;22;45942;-51
2024/01/09 14:35:59;;;;;;;3.63;2.13;;;13.50;25.50;;;;;;6089721;22;45156;-51
2024/01/09 14:38:38;;;;;;;2.63;1.95;;;13.50;25.40;;;;;;6075390;22;45294;-52
2024/01/09 14:41:05;;;;;;;3.17;1.98;;;13.60;25.10;;;;;;6084227;22;45259;-52
2024/01/09 14:43:54;;;;;;;5.88;1.92;;;13.50;25.40;;;;;;6076696;22;46170;-52
2024/01/09 14:46:21;;;;;;;3.10;2.00;;;13.50;24.90;;;;;;6092797;22;45045;-51
2024/01/09 14:48:48;;;;;;;4.40;1.80;;;13.50;26.40;;;;;;6098279;22;45274;-52
2024/01/09 14:51:49;;;;;;;4.82;2.13;;;13.50;25.30;;;;;;6099267;22;45353;-51
2024/01/09 14:54:37;;;;;;;2.97;1.92;;;13.50;25.00;;;;;;6082114;22;46595;-51
2024/01/09 14:57:26;;;;;;;3.67;2.05;;;13.50;24.90;;;;;;6070960;22;45102;-52
2024/01/09 15:00:12;;;;;;;3.45;2.00;;;13.50;24.90;;;;;;6061172;22;45290;-51
2024/01/09 15:03:13;;;;;;;2.60;1.90;;;13.60;25.30;;;;;;6066625;22;45242;-51
2024/01/09 15:05:40;;;;;;;4.47;2.10;;;13.50;24.90;;;;;;6053682;22;48496;-51
2024/01/09 15:08:07;;;;;;;4.78;2.55;;;13.50;25.30;;;;;;6083233;22;45079;-52
2024/01/09 15:11:05;;;;;;;4.97;2.47;;;13.50;25.20;;;;;;6068402;22;45117;-52
2024/01/09 15:14:00;;;;;;;8.18;2.40;;;13.50;24.80;;;;;;6078010;22;45043;-52